sensor_id;sensor_type;location;lat;lon;timestamp;P1;durP1;ratioP1;P2;durP2;ratioP2
75340;SDS011;64931;47.562;18.920;2023-12-07T14:33:18;39.40;;;23.30;;
75340;SDS011;64931;47.562;18.920;2023-12-07T14:35:43;33.00;;;19.20;;
75340;SDS011;64931;47.562;18.920;2023-12-07T14:38:09;27.00;;;15.50;;
75340;SDS011;64931;47.562;18.920;2023-12-07T14:40:38;31.60;;;17.60;;
75340;SDS011;64931;47.562;18.920;2023-12-07T14:43:03;35.40;;;20.60;;
75340;SDS011;64931;47.562;18.920;2023-12-07T14:45:28;40.50;;;23.90;;
75340;SDS011;64931;47.562;18.920;2023-12-07T14:47:54;45.10;;;24.30;;
75340;SDS011;64931;47.562;18.920;2023-12-07T14:50:19;36.40;;;21.40;;
75340;SDS011;64931;47.562;18.920;2023-12-07T14:52:45;40.00;;;24.00;;
75340;SDS011;64931;47.562;18.920;2023-12-07T14:55:10;37.20;;;19.70;;
75340;SDS011;64931;47.562;18.920;2023-12-07T14:57:36;40.80;;;22.00;;
75340;SDS011;64931;47.562;18.920;2023-12-07T15:00:01;32.90;;;18.70;;
75340;SDS011;64931;47.562;18.920;2023-12-07T15:02:29;36.60;;;20.00;;
75340;SDS011;64931;47.562;18.920;2023-12-07T15:04:55;34.20;;;20.10;;
75340;SDS011;64931;47.562;18.920;2023-12-07T15:07:20;39.60;;;20.60;;
75340;SDS011;64931;47.562;18.920;2023-12-07T15:09:46;37.80;;;22.00;;
75340;SDS011;64931;47.562;18.920;2023-12-07T15:12:14;37.10;;;19.90;;
75340;SDS011;64931;47.562;18.920;2023-12-07T15:14:41;33.10;;;19.20;;
75340;SDS011;64931;47.562;18.920;2023-12-07T15:17:09;34.10;;;20.90;;
75340;SDS011;64931;47.562;18.920;2023-12-07T15:19:34;31.80;;;17.90;;
75340;SDS011;64931;47.562;18.920;2023-12-07T15:22:00;35.80;;;21.00;;
75340;SDS011;64931;47.562;18.920;2023-12-07T15:24:25;30.80;;;18.40;;
75340;SDS011;64931;47.562;18.920;2023-12-07T15:26:51;33.90;;;20.60;;
75340;SDS011;64931;47.562;18.920;2023-12-07T15:29:16;36.40;;;20.90;;
75340;SDS011;64931;47.562;18.920;2023-12-07T15:31:45;32.50;;;18.80;;
75340;SDS011;64931;47.562;18.920;2023-12-07T15:34:10;35.40;;;19.20;;
75340;SDS011;64931;47.562;18.920;2023-12-07T15:36:37;27.80;;;14.90;;
75340;SDS011;64931;47.562;18.920;2023-12-07T15:39:02;34.20;;;19.70;;
75340;SDS011;64931;47.562;18.920;2023-12-07T15:41:28;31.10;;;17.80;;
75340;SDS011;64931;47.562;18.920;2023-12-07T15:43:53;35.70;;;20.30;;
75340;SDS011;64931;47.562;18.920;2023-12-07T15:46:19;33.40;;;18.50;;
75340;SDS011;64931;47.562;18.920;2023-12-07T15:48:45;36.40;;;22.10;;
75340;SDS011;64931;47.562;18.920;2023-12-07T15:51:11;37.70;;;21.50;;
75340;SDS011;64931;47.562;18.920;2023-12-07T15:53:36;34.70;;;21.40;;
75340;SDS011;64931;47.562;18.920;2023-12-07T15:56:03;31.70;;;19.40;;
75340;SDS011;64931;47.562;18.920;2023-12-07T15:58:29;32.50;;;19.60;;
75340;SDS011;64931;47.562;18.920;2023-12-07T16:00:55;37.60;;;21.30;;
75340;SDS011;64931;47.562;18.920;2023-12-07T16:03:20;34.10;;;20.20;;
75340;SDS011;64931;47.562;18.920;2023-12-07T16:05:46;33.20;;;19.90;;
75340;SDS011;64931;47.562;18.920;2023-12-07T16:08:11;34.90;;;20.10;;
75340;SDS011;64931;47.562;18.920;2023-12-07T16:10:37;36.70;;;19.60;;
75340;SDS011;64931;47.562;18.920;2023-12-07T16:13:03;37.30;;;20.80;;
75340;SDS011;64931;47.562;18.920;2023-12-07T16:15:28;42.60;;;25.80;;
75340;SDS011;64931;47.562;18.920;2023-12-07T16:17:54;43.70;;;24.00;;
75340;SDS011;64931;47.562;18.920;2023-12-07T16:20:19;42.80;;;23.10;;
75340;SDS011;64931;47.562;18.920;2023-12-07T16:22:45;42.20;;;25.20;;
75340;SDS011;64931;47.562;18.920;2023-12-07T16:25:11;45.90;;;24.40;;
75340;SDS011;64931;47.562;18.920;2023-12-07T16:27:36;48.40;;;26.60;;
75340;SDS011;64931;47.562;18.920;2023-12-07T16:30:02;43.90;;;24.70;;
75340;SDS011;64931;47.562;18.920;2023-12-07T16:32:31;46.50;;;26.10;;
75340;SDS011;64931;47.562;18.920;2023-12-07T16:34:56;42.80;;;22.40;;
75340;SDS011;64931;47.562;18.920;2023-12-07T16:37:21;47.80;;;24.40;;
75340;SDS011;64931;47.562;18.920;2023-12-07T16:39:47;43.10;;;23.40;;
75340;SDS011;64931;47.562;18.920;2023-12-07T16:42:13;44.70;;;25.10;;
75340;SDS011;64931;47.562;18.920;2023-12-07T16:44:39;42.80;;;23.20;;
75340;SDS011;64931;47.562;18.920;2023-12-07T16:47:05;46.70;;;25.40;;
75340;SDS011;64931;47.562;18.920;2023-12-07T16:49:31;44.10;;;22.70;;
75340;SDS011;64931;47.562;18.920;2023-12-07T16:51:57;44.40;;;25.10;;
75340;SDS011;64931;47.562;18.920;2023-12-07T16:54:24;45.80;;;25.10;;
75340;SDS011;64931;47.562;18.920;2023-12-07T16:56:50;42.80;;;22.50;;
75340;SDS011;64931;47.562;18.920;2023-12-07T16:59:16;45.20;;;25.10;;
75340;SDS011;64931;47.562;18.920;2023-12-07T17:01:42;45.60;;;24.60;;
75340;SDS011;64931;47.562;18.920;2023-12-07T17:04:08;44.00;;;22.10;;
75340;SDS011;64931;47.562;18.920;2023-12-07T17:06:33;42.20;;;21.40;;
75340;SDS011;64931;47.562;18.920;2023-12-07T17:08:59;48.00;;;24.40;;
75340;SDS011;64931;47.562;18.920;2023-12-07T17:11:24;50.00;;;26.20;;
75340;SDS011;64931;47.562;18.920;2023-12-07T17:13:50;45.40;;;24.30;;
75340;SDS011;64931;47.562;18.920;2023-12-07T17:16:18;49.00;;;25.30;;
75340;SDS011;64931;47.562;18.920;2023-12-07T17:18:43;44.60;;;24.50;;
75340;SDS011;64931;47.562;18.920;2023-12-07T17:21:09;51.60;;;26.50;;
75340;SDS011;64931;47.562;18.920;2023-12-07T17:23:35;57.70;;;28.60;;
75340;SDS011;64931;47.562;18.920;2023-12-07T17:26:00;55.30;;;27.40;;
75340;SDS011;64931;47.562;18.920;2023-12-07T17:28:26;55.10;;;29.50;;
75340;SDS011;64931;47.562;18.920;2023-12-07T17:30:51;59.20;;;31.70;;
75340;SDS011;64931;47.562;18.920;2023-12-07T17:33:17;56.90;;;28.10;;
75340;SDS011;64931;47.562;18.920;2023-12-07T17:35:42;51.30;;;25.70;;
75340;SDS011;64931;47.562;18.920;2023-12-07T17:38:08;48.20;;;24.60;;
75340;SDS011;64931;47.562;18.920;2023-12-07T17:40:33;45.70;;;24.60;;
75340;SDS011;64931;47.562;18.920;2023-12-07T17:42:59;45.70;;;23.40;;
75340;SDS011;64931;47.562;18.920;2023-12-07T17:45:24;46.10;;;23.90;;
75340;SDS011;64931;47.562;18.920;2023-12-07T17:47:51;48.10;;;27.40;;
75340;SDS011;64931;47.562;18.920;2023-12-07T17:50:16;50.30;;;27.50;;
75340;SDS011;64931;47.562;18.920;2023-12-07T17:52:48;46.70;;;27.50;;
75340;SDS011;64931;47.562;18.920;2023-12-07T17:55:13;43.80;;;22.80;;
75340;SDS011;64931;47.562;18.920;2023-12-07T17:57:39;44.20;;;23.10;;
75340;SDS011;64931;47.562;18.920;2023-12-07T18:00:05;48.70;;;25.10;;
75340;SDS011;64931;47.562;18.920;2023-12-07T18:02:31;44.60;;;23.00;;
75340;SDS011;64931;47.562;18.920;2023-12-07T18:04:56;43.90;;;23.30;;
75340;SDS011;64931;47.562;18.920;2023-12-07T18:07:22;50.90;;;24.80;;
75340;SDS011;64931;47.562;18.920;2023-12-07T18:09:48;51.60;;;28.90;;
75340;SDS011;64931;47.562;18.920;2023-12-07T18:12:13;49.10;;;25.40;;
75340;SDS011;64931;47.562;18.920;2023-12-07T18:14:39;45.60;;;24.40;;
75340;SDS011;64931;47.562;18.920;2023-12-07T18:17:04;48.50;;;23.80;;
75340;SDS011;64931;47.562;18.920;2023-12-07T18:19:31;49.40;;;24.20;;
75340;SDS011;64931;47.562;18.920;2023-12-07T18:21:59;43.80;;;23.20;;
75340;SDS011;64931;47.562;18.920;2023-12-07T18:24:26;39.30;;;20.00;;
75340;SDS011;64931;47.562;18.920;2023-12-07T18:26:51;38.50;;;21.30;;
75340;SDS011;64931;47.562;18.920;2023-12-07T18:29:17;46.70;;;25.00;;
75340;SDS011;64931;47.562;18.920;2023-12-07T18:31:42;47.70;;;23.30;;
75340;SDS011;64931;47.562;18.920;2023-12-07T18:34:11;43.90;;;22.90;;
75340;SDS011;64931;47.562;18.920;2023-12-07T18:36:36;48.30;;;24.10;;
75340;SDS011;64931;47.562;18.920;2023-12-07T18:39:02;45.50;;;23.70;;
75340;SDS011;64931;47.562;18.920;2023-12-07T18:41:27;42.20;;;22.00;;
75340;SDS011;64931;47.562;18.920;2023-12-07T18:43:52;46.60;;;23.60;;
75340;SDS011;64931;47.562;18.920;2023-12-07T18:46:18;41.80;;;22.60;;
75340;SDS011;64931;47.562;18.920;2023-12-07T18:48:43;42.50;;;21.40;;
75340;SDS011;64931;47.562;18.920;2023-12-07T18:51:09;47.30;;;23.90;;
75340;SDS011;64931;47.562;18.920;2023-12-07T18:53:34;40.90;;;20.20;;
75340;SDS011;64931;47.562;18.920;2023-12-07T18:56:00;46.30;;;23.60;;
75340;SDS011;64931;47.562;18.920;2023-12-07T18:58:25;42.60;;;22.30;;
75340;SDS011;64931;47.562;18.920;2023-12-07T19:00:57;41.60;;;22.30;;
75340;SDS011;64931;47.562;18.920;2023-12-07T19:03:23;43.30;;;20.70;;
75340;SDS011;64931;47.562;18.920;2023-12-07T19:05:48;47.80;;;24.30;;
75340;SDS011;64931;47.562;18.920;2023-12-07T19:08:14;44.90;;;22.80;;
75340;SDS011;64931;47.562;18.920;2023-12-07T19:10:43;58.40;;;27.90;;
75340;SDS011;64931;47.562;18.920;2023-12-07T19:13:09;43.20;;;23.00;;
75340;SDS011;64931;47.562;18.920;2023-12-07T19:15:34;49.50;;;25.10;;
75340;SDS011;64931;47.562;18.920;2023-12-07T19:18:00;51.70;;;24.70;;
75340;SDS011;64931;47.562;18.920;2023-12-07T19:20:25;51.00;;;24.80;;
75340;SDS011;64931;47.562;18.920;2023-12-07T19:22:51;57.80;;;25.20;;
75340;SDS011;64931;47.562;18.920;2023-12-07T19:25:17;54.10;;;25.10;;
75340;SDS011;64931;47.562;18.920;2023-12-07T19:27:43;45.00;;;21.70;;
75340;SDS011;64931;47.562;18.920;2023-12-07T19:30:08;54.80;;;24.80;;
75340;SDS011;64931;47.562;18.920;2023-12-07T19:32:34;54.20;;;26.00;;
75340;SDS011;64931;47.562;18.920;2023-12-07T19:35:00;50.30;;;25.10;;
75340;SDS011;64931;47.562;18.920;2023-12-07T19:37:27;58.40;;;25.60;;
75340;SDS011;64931;47.562;18.920;2023-12-07T19:39:54;52.90;;;25.40;;
75340;SDS011;64931;47.562;18.920;2023-12-07T19:42:20;45.10;;;22.10;;
75340;SDS011;64931;47.562;18.920;2023-12-07T19:44:45;47.70;;;24.30;;
75340;SDS011;64931;47.562;18.920;2023-12-07T19:47:11;54.70;;;26.40;;
75340;SDS011;64931;47.562;18.920;2023-12-07T19:49:36;49.40;;;24.30;;
75340;SDS011;64931;47.562;18.920;2023-12-07T19:52:02;46.60;;;22.80;;
75340;SDS011;64931;47.562;18.920;2023-12-07T19:54:28;40.70;;;21.20;;
75340;SDS011;64931;47.562;18.920;2023-12-07T19:56:53;38.60;;;20.00;;
75340;SDS011;64931;47.562;18.920;2023-12-07T19:59:19;34.50;;;17.70;;
75340;SDS011;64931;47.562;18.920;2023-12-07T20:01:44;37.10;;;20.00;;
75340;SDS011;64931;47.562;18.920;2023-12-07T20:04:10;36.20;;;19.00;;
75340;SDS011;64931;47.562;18.920;2023-12-07T20:06:36;35.90;;;18.00;;
75340;SDS011;64931;47.562;18.920;2023-12-07T20:09:02;36.00;;;18.70;;
75340;SDS011;64931;47.562;18.920;2023-12-07T20:11:28;39.00;;;17.30;;
75340;SDS011;64931;47.562;18.920;2023-12-07T20:13:53;40.70;;;20.60;;
75340;SDS011;64931;47.562;18.920;2023-12-07T20:16:19;37.00;;;19.00;;
75340;SDS011;64931;47.562;18.920;2023-12-07T20:18:45;38.80;;;19.30;;
75340;SDS011;64931;47.562;18.920;2023-12-07T20:21:11;36.20;;;18.10;;
75340;SDS011;64931;47.562;18.920;2023-12-07T20:23:37;33.20;;;16.60;;
75340;SDS011;64931;47.562;18.920;2023-12-07T20:26:05;33.30;;;17.20;;
75340;SDS011;64931;47.562;18.920;2023-12-07T20:28:31;36.70;;;19.30;;
75340;SDS011;64931;47.562;18.920;2023-12-07T20:30:58;38.20;;;18.60;;
75340;SDS011;64931;47.562;18.920;2023-12-07T20:33:24;36.80;;;20.70;;
75340;SDS011;64931;47.562;18.920;2023-12-07T20:35:49;35.00;;;17.70;;
75340;SDS011;64931;47.562;18.920;2023-12-07T20:38:14;31.80;;;17.00;;
75340;SDS011;64931;47.562;18.920;2023-12-07T20:40:40;33.00;;;17.60;;
75340;SDS011;64931;47.562;18.920;2023-12-07T20:43:05;34.90;;;18.80;;
75340;SDS011;64931;47.562;18.920;2023-12-07T20:45:31;34.60;;;19.20;;
75340;SDS011;64931;47.562;18.920;2023-12-07T20:47:56;43.00;;;21.60;;
75340;SDS011;64931;47.562;18.920;2023-12-07T20:50:22;38.00;;;19.00;;
75340;SDS011;64931;47.562;18.920;2023-12-07T20:52:48;36.10;;;17.50;;
75340;SDS011;64931;47.562;18.920;2023-12-07T20:55:13;30.20;;;16.00;;
75340;SDS011;64931;47.562;18.920;2023-12-07T20:57:42;26.20;;;15.50;;
75340;SDS011;64931;47.562;18.920;2023-12-07T21:00:09;28.70;;;15.20;;
75340;SDS011;64931;47.562;18.920;2023-12-07T21:02:35;32.20;;;16.50;;
75340;SDS011;64931;47.562;18.920;2023-12-07T21:05:00;28.50;;;14.70;;
75340;SDS011;64931;47.562;18.920;2023-12-07T21:07:26;27.20;;;14.70;;
75340;SDS011;64931;47.562;18.920;2023-12-07T21:09:51;28.00;;;15.30;;
75340;SDS011;64931;47.562;18.920;2023-12-07T21:12:17;30.00;;;15.70;;
75340;SDS011;64931;47.562;18.920;2023-12-07T21:14:42;34.90;;;17.20;;
75340;SDS011;64931;47.562;18.920;2023-12-07T21:17:07;29.50;;;16.40;;
75340;SDS011;64931;47.562;18.920;2023-12-07T21:19:37;28.80;;;15.00;;
75340;SDS011;64931;47.562;18.920;2023-12-07T21:22:02;29.30;;;15.70;;
75340;SDS011;64931;47.562;18.920;2023-12-07T21:24:27;37.50;;;19.20;;
75340;SDS011;64931;47.562;18.920;2023-12-07T21:26:53;46.30;;;21.90;;
75340;SDS011;64931;47.562;18.920;2023-12-07T21:29:18;32.30;;;17.00;;
75340;SDS011;64931;47.562;18.920;2023-12-07T21:31:44;33.60;;;17.40;;
75340;SDS011;64931;47.562;18.920;2023-12-07T21:34:09;29.20;;;15.50;;
75340;SDS011;64931;47.562;18.920;2023-12-07T21:36:35;32.40;;;15.90;;
75340;SDS011;64931;47.562;18.920;2023-12-07T21:39:00;29.60;;;15.20;;
75340;SDS011;64931;47.562;18.920;2023-12-07T21:41:26;30.50;;;16.60;;
75340;SDS011;64931;47.562;18.920;2023-12-07T21:43:51;30.00;;;15.30;;
75340;SDS011;64931;47.562;18.920;2023-12-07T21:46:16;28.60;;;15.40;;
75340;SDS011;64931;47.562;18.920;2023-12-07T21:48:42;26.90;;;14.50;;
75340;SDS011;64931;47.562;18.920;2023-12-07T21:51:07;28.60;;;15.30;;
75340;SDS011;64931;47.562;18.920;2023-12-07T21:53:33;28.40;;;15.00;;
75340;SDS011;64931;47.562;18.920;2023-12-07T21:55:58;24.60;;;14.30;;
75340;SDS011;64931;47.562;18.920;2023-12-07T21:58:23;27.20;;;14.70;;
75340;SDS011;64931;47.562;18.920;2023-12-07T22:00:49;27.30;;;14.30;;
75340;SDS011;64931;47.562;18.920;2023-12-07T22:03:14;26.20;;;14.20;;
75340;SDS011;64931;47.562;18.920;2023-12-07T22:05:40;26.50;;;13.80;;
75340;SDS011;64931;47.562;18.920;2023-12-07T22:08:06;24.70;;;13.80;;
75340;SDS011;64931;47.562;18.920;2023-12-07T22:10:31;28.60;;;14.80;;
75340;SDS011;64931;47.562;18.920;2023-12-07T22:12:56;28.30;;;15.70;;
75340;SDS011;64931;47.562;18.920;2023-12-07T22:15:22;30.90;;;15.60;;
75340;SDS011;64931;47.562;18.920;2023-12-07T22:17:48;31.80;;;16.60;;
75340;SDS011;64931;47.562;18.920;2023-12-07T22:20:13;30.20;;;16.00;;
75340;SDS011;64931;47.562;18.920;2023-12-07T22:22:39;29.70;;;16.40;;
75340;SDS011;64931;47.562;18.920;2023-12-07T22:25:06;40.70;;;21.00;;
75340;SDS011;64931;47.562;18.920;2023-12-07T22:27:35;35.60;;;18.40;;
75340;SDS011;64931;47.562;18.920;2023-12-07T22:30:01;33.80;;;18.20;;
75340;SDS011;64931;47.562;18.920;2023-12-07T22:32:26;25.10;;;14.40;;
75340;SDS011;64931;47.562;18.920;2023-12-07T22:34:51;27.70;;;14.50;;
75340;SDS011;64931;47.562;18.920;2023-12-07T22:37:17;26.50;;;14.20;;
75340;SDS011;64931;47.562;18.920;2023-12-07T22:39:42;26.00;;;13.70;;
75340;SDS011;64931;47.562;18.920;2023-12-07T22:42:08;28.80;;;15.10;;
75340;SDS011;64931;47.562;18.920;2023-12-07T22:44:36;25.00;;;13.40;;
75340;SDS011;64931;47.562;18.920;2023-12-07T22:47:02;24.40;;;12.80;;
75340;SDS011;64931;47.562;18.920;2023-12-07T22:49:27;26.10;;;13.50;;
75340;SDS011;64931;47.562;18.920;2023-12-07T22:51:56;27.60;;;15.40;;
75340;SDS011;64931;47.562;18.920;2023-12-07T22:54:25;32.50;;;16.90;;
75340;SDS011;64931;47.562;18.920;2023-12-07T22:56:51;25.40;;;14.20;;
75340;SDS011;64931;47.562;18.920;2023-12-07T22:59:17;21.00;;;11.90;;
75340;SDS011;64931;47.562;18.920;2023-12-07T23:01:42;20.00;;;11.60;;
75340;SDS011;64931;47.562;18.920;2023-12-07T23:04:08;20.80;;;11.40;;
75340;SDS011;64931;47.562;18.920;2023-12-07T23:06:33;22.90;;;12.50;;
75340;SDS011;64931;47.562;18.920;2023-12-07T23:08:59;21.40;;;11.50;;
75340;SDS011;64931;47.562;18.920;2023-12-07T23:11:24;19.60;;;10.50;;
75340;SDS011;64931;47.562;18.920;2023-12-07T23:13:50;20.00;;;11.70;;
75340;SDS011;64931;47.562;18.920;2023-12-07T23:16:15;21.10;;;11.10;;
75340;SDS011;64931;47.562;18.920;2023-12-07T23:18:41;20.70;;;11.10;;
75340;SDS011;64931;47.562;18.920;2023-12-07T23:21:10;22.40;;;12.30;;
75340;SDS011;64931;47.562;18.920;2023-12-07T23:23:37;25.80;;;13.40;;
75340;SDS011;64931;47.562;18.920;2023-12-07T23:26:05;20.60;;;11.90;;
75340;SDS011;64931;47.562;18.920;2023-12-07T23:28:32;19.80;;;10.80;;
75340;SDS011;64931;47.562;18.920;2023-12-07T23:31:00;24.00;;;12.90;;
75340;SDS011;64931;47.562;18.920;2023-12-07T23:33:25;23.60;;;12.00;;
75340;SDS011;64931;47.562;18.920;2023-12-07T23:35:51;23.00;;;13.00;;
75340;SDS011;64931;47.562;18.920;2023-12-07T23:38:17;25.20;;;13.40;;
75340;SDS011;64931;47.562;18.920;2023-12-07T23:40:43;19.40;;;11.20;;
75340;SDS011;64931;47.562;18.920;2023-12-07T23:43:08;25.30;;;12.80;;
75340;SDS011;64931;47.562;18.920;2023-12-07T23:45:34;22.10;;;12.30;;
75340;SDS011;64931;47.562;18.920;2023-12-07T23:47:59;19.20;;;11.10;;
75340;SDS011;64931;47.562;18.920;2023-12-07T23:50:25;19.30;;;10.70;;
75340;SDS011;64931;47.562;18.920;2023-12-07T23:52:50;21.50;;;11.50;;
75340;SDS011;64931;47.562;18.920;2023-12-07T23:55:15;19.80;;;10.80;;
75340;SDS011;64931;47.562;18.920;2023-12-07T23:57:41;19.70;;;11.40;;
